Time;durP1;ratioP1;P1;durP2;ratioP2;P2;SDS_P1;SDS_P2;PMS_P1;PMS_P2;Temp;Humidity;BMP_temperature;BMP_pressure;BME280_temperature;BME280_humidity;BME280_pressure;Samples;Min_cycle;Max_cycle;Signal;HPM_P1;HPM_P2
2023/01/31 00:01:11;;;;;;;;;;;10.20;99.90;;;;;;4591140;19;19925;-33
2023/01/31 00:02:43;;;;;;;;;;;10.20;99.90;;;;;;4591398;19;19914;-36
2023/01/31 00:04:14;;;;;;;;;;;10.00;99.90;;;;;;4592373;19;19914;-32
2023/01/31 00:05:45;;;;;;;;;;;10.00;99.90;;;;;;4592949;19;19915;-34
2023/01/31 00:07:16;;;;;;;;;;;10.00;99.90;;;;;;4593025;19;20270;-33
2023/01/31 00:08:47;;;;;;;;;;;10.00;99.90;;;;;;4592454;19;19915;-35
2023/01/31 00:10:20;;;;;;;;;;;10.10;99.90;;;;;;4592054;19;19932;-35
2023/01/31 00:11:52;;;;;;;;;;;10.20;99.90;;;;;;4592596;19;19915;-34
2023/01/31 00:13:26;;;;;;;;;;;10.30;99.90;;;;;;4592505;19;19915;-34
2023/01/31 00:14:57;;;;;;;;;;;10.30;99.90;;;;;;4591369;19;19918;-35
2023/01/31 00:16:28;;;;;;;;;;;10.30;99.90;;;;;;4592632;19;19931;-35
2023/01/31 00:17:59;;;;;;;;;;;10.40;99.90;;;;;;4592463;19;20321;-34
2023/01/31 00:19:30;;;;;;;;;;;10.40;99.90;;;;;;4592029;19;20016;-33
2023/01/31 00:21:06;;;;;;;;;;;10.30;99.90;;;;;;4591751;19;19923;-35
2023/01/31 00:22:37;;;;;;;;;;;10.20;99.90;;;;;;4592454;19;19939;-34
2023/01/31 00:24:08;;;;;;;;;;;10.20;99.90;;;;;;4592748;19;20325;-33
2023/01/31 00:25:39;;;;;;;;;;;10.20;99.90;;;;;;4591973;19;19925;-32
2023/01/31 00:27:10;;;;;;;;;;;10.10;99.90;;;;;;4592429;19;20329;-34
2023/01/31 00:28:42;;;;;;;;;;;10.10;99.90;;;;;;4592728;19;19918;-32
2023/01/31 00:30:13;;;;;;;;;;;10.10;99.90;;;;;;4592216;19;19918;-33
2023/01/31 00:31:44;;;;;;;;;;;10.20;99.90;;;;;;4591811;19;20321;-33
2023/01/31 00:33:15;;;;;;;;;;;10.30;99.90;;;;;;4592381;19;19914;-34
2023/01/31 00:34:46;;;;;;;;;;;10.30;99.90;;;;;;4591238;19;20404;-31
2023/01/31 00:36:18;;;;;;;;;;;10.20;99.90;;;;;;4591533;19;19926;-33
2023/01/31 00:37:49;;;;;;;;;;;10.30;99.90;;;;;;4590818;19;19922;-33
2023/01/31 00:39:21;;;;;;;;;;;10.30;99.90;;;;;;4591434;19;19915;-32
2023/01/31 00:40:52;;;;;;;;;;;10.30;99.90;;;;;;4591574;19;19933;-31
2023/01/31 00:42:23;;;;;;;;;;;10.10;99.90;;;;;;4591471;19;19926;-35
2023/01/31 00:43:54;;;;;;;;;;;10.20;99.90;;;;;;4591624;19;20270;-32
2023/01/31 00:45:25;;;;;;;;;;;10.20;99.90;;;;;;4590876;19;19915;-33
2023/01/31 00:46:56;;;;;;;;;;;10.20;99.90;;;;;;4591688;19;19907;-32
2023/01/31 00:48:28;;;;;;;;;;;10.20;99.90;;;;;;4591656;19;19927;-34
2023/01/31 00:49:59;;;;;;;;;;;10.20;99.90;;;;;;4589342;19;20275;-35
2023/01/31 00:51:30;;;;;;;;;;;10.20;99.90;;;;;;4591573;19;19922;-34
2023/01/31 00:53:01;;;;;;;;;;;10.30;99.90;;;;;;4592195;19;19923;-35
2023/01/31 00:54:32;;;;;;;;;;;10.30;99.90;;;;;;4591334;19;20241;-31
2023/01/31 00:56:07;;;;;;;;;;;10.30;99.90;;;;;;4591333;19;19978;-33
2023/01/31 00:57:38;;;;;;;;;;;10.30;99.90;;;;;;4591872;19;19918;-31
2023/01/31 00:59:10;;;;;;;;;;;10.30;99.90;;;;;;4589425;19;19935;-33
2023/01/31 01:00:41;;;;;;;;;;;10.10;99.90;;;;;;4590325;19;19919;-34
2023/01/31 01:02:12;;;;;;;;;;;10.10;99.90;;;;;;4591442;19;19919;-32
2023/01/31 01:03:43;;;;;;;;;;;10.30;99.90;;;;;;4591571;19;19915;-33
2023/01/31 01:05:14;;;;;;;;;;;10.30;99.90;;;;;;4590064;19;20281;-33
2023/01/31 01:06:46;;;;;;;;;;;10.20;99.90;;;;;;4591035;19;19978;-35
2023/01/31 01:08:17;;;;;;;;;;;10.10;99.90;;;;;;4591971;19;19919;-31
2023/01/31 01:09:48;;;;;;;;;;;10.10;99.90;;;;;;4591816;19;19915;-32
2023/01/31 01:11:21;;;;;;;;;;;10.20;99.90;;;;;;4591234;19;19990;-34
2023/01/31 01:12:52;;;;;;;;;;;10.20;99.90;;;;;;4591186;19;20329;-32
2023/01/31 01:14:23;;;;;;;;;;;10.20;99.90;;;;;;4589517;19;20262;-33
2023/01/31 01:15:54;;;;;;;;;;;10.20;99.90;;;;;;4590167;19;19978;-33
2023/01/31 01:17:25;;;;;;;;;;;10.20;99.90;;;;;;4590810;19;19934;-35
2023/01/31 01:18:56;;;;;;;;;;;10.20;99.90;;;;;;4591566;19;19915;-32
2023/01/31 01:20:27;;;;;;;;;;;10.10;99.90;;;;;;4590813;19;19982;-36
2023/01/31 01:21:59;;;;;;;;;;;10.20;99.90;;;;;;4590711;19;20349;-32
2023/01/31 01:23:30;;;;;;;;;;;10.20;99.90;;;;;;4591276;19;19922;-33
2023/01/31 01:25:02;;;;;;;;;;;10.20;99.90;;;;;;4591389;19;20017;-33
2023/01/31 01:26:33;;;;;;;;;;;10.10;99.90;;;;;;4591245;19;19997;-31
2023/01/31 01:28:04;;;;;;;;;;;10.20;99.90;;;;;;4590760;19;19939;-32
2023/01/31 01:29:36;;;;;;;;;;;10.20;99.90;;;;;;4591293;19;19982;-35
2023/01/31 01:31:07;;;;;;;;;;;10.20;99.90;;;;;;4591690;19;20321;-34
2023/01/31 01:32:38;;;;;;;;;;;10.20;99.90;;;;;;4590507;19;19942;-33
2023/01/31 01:34:10;;;;;;;;;;;10.20;99.90;;;;;;4590358;19;20271;-34
2023/01/31 01:35:41;;;;;;;;;;;10.20;99.90;;;;;;4591238;19;19919;-33
2023/01/31 01:37:18;;;;;;;;;;;10.10;99.90;;;;;;4590942;19;19931;-33
2023/01/31 01:38:50;;;;;;;;;;;10.10;99.90;;;;;;4590894;19;19919;-34
2023/01/31 01:40:21;;;;;;;;;;;10.10;99.90;;;;;;4590458;19;19978;-35
2023/01/31 01:41:52;;;;;;;;;;;10.00;99.90;;;;;;4590818;19;19911;-36
2023/01/31 01:43:38;;;;;;;;;;;10.00;99.90;;;;;;4591006;19;19914;-33
2023/01/31 01:45:14;;;;;;;;;;;10.00;99.90;;;;;;4590252;19;19923;-33
2023/01/31 01:46:45;;;;;;;;;;;10.10;99.90;;;;;;4590247;19;19938;-33
2023/01/31 01:48:17;;;;;;;;;;;10.20;99.90;;;;;;4590645;19;19918;-32
2023/01/31 01:49:49;;;;;;;;;;;10.20;99.90;;;;;;4591201;19;19925;-33
2023/01/31 01:51:20;;;;;;;;;;;10.00;99.90;;;;;;4589615;19;19915;-32
2023/01/31 01:53:02;;;;;;;;;;;10.00;99.90;;;;;;4590015;19;19915;-35
2023/01/31 01:54:35;;;;;;;;;;;10.00;99.90;;;;;;4591025;19;19990;-32
2023/01/31 01:56:07;;;;;;;;;;;10.00;99.90;;;;;;4589690;19;20343;-35
2023/01/31 01:57:39;;;;;;;;;;;10.00;99.90;;;;;;4590894;19;19927;-30
2023/01/31 01:59:21;;;;;;;;;;;10.10;99.90;;;;;;4589106;19;19923;-35
2023/01/31 02:00:52;;;;;;;;;;;10.10;99.90;;;;;;4589376;19;20346;-31
2023/01/31 02:02:23;;;;;;;;;;;10.00;99.90;;;;;;4592520;19;19978;-34
2023/01/31 02:03:54;;;;;;;;;;;10.10;99.90;;;;;;4593994;19;19910;-32
2023/01/31 02:05:30;;;;;;;;;;;10.20;99.90;;;;;;4593926;19;20411;-32
2023/01/31 02:07:01;;;;;;;;;;;10.20;99.90;;;;;;4594401;19;20404;-34
2023/01/31 02:08:33;;;;;;;;;;;10.20;99.90;;;;;;4594546;19;19918;-34
2023/01/31 02:10:06;;;;;;;;;;;10.20;99.90;;;;;;4593967;19;19941;-34
2023/01/31 02:11:37;;;;;;;;;;;10.20;99.90;;;;;;4593646;19;19922;-32
2023/01/31 02:13:09;;;;;;;;;;;10.20;99.90;;;;;;4594714;19;20331;-36
2023/01/31 02:14:40;;;;;;;;;;;10.20;99.90;;;;;;4594164;19;19918;-35
2023/01/31 02:16:11;;;;;;;;;;;10.20;99.90;;;;;;4594865;19;19970;-34
2023/01/31 02:17:42;;;;;;;;;;;10.20;99.90;;;;;;4594599;19;20002;-36
2023/01/31 02:19:22;;;;;;;;;;;10.20;99.90;;;;;;4595125;19;19918;-32
2023/01/31 02:21:12;;;;;;;;;;;10.20;99.90;;;;;;4592779;19;19982;-32
2023/01/31 02:23:01;;;;;;;;;;;10.20;99.90;;;;;;4595201;19;19918;-31
2023/01/31 02:24:47;;;;;;;;;;;10.30;99.90;;;;;;4594467;19;19911;-32
2023/01/31 02:26:37;;;;;;;;;;;10.30;99.90;;;;;;4595038;19;19915;-33
2023/01/31 02:28:08;;;;;;;;;;;10.40;99.90;;;;;;4594435;19;19910;-34
2023/01/31 02:29:45;;;;;;;;;;;10.30;99.90;;;;;;4594907;19;19910;-32
2023/01/31 02:31:25;;;;;;;;;;;10.30;99.90;;;;;;4593772;19;19930;-34
2023/01/31 02:32:56;;;;;;;;;;;10.10;99.90;;;;;;4594607;19;19929;-34
2023/01/31 02:34:31;;;;;;;;;;;10.10;99.90;;;;;;4594616;19;19922;-36
2023/01/31 02:36:21;;;;;;;;;;;10.20;99.90;;;;;;4594526;19;19978;-33
2023/01/31 02:37:52;;;;;;;;;;;10.10;99.90;;;;;;4594035;19;20362;-35
2023/01/31 02:39:27;;;;;;;;;;;10.10;99.90;;;;;;4594665;19;19914;-34
2023/01/31 02:41:08;;;;;;;;;;;10.10;99.90;;;;;;4593058;19;19982;-32
2023/01/31 02:42:48;;;;;;;;;;;10.10;99.90;;;;;;4594227;19;19918;-32
2023/01/31 02:46:41;;;;;;;;;;;10.20;99.90;;;;;;4593993;19;19926;-34
2023/01/31 02:48:12;;;;;;;;;;;10.10;99.90;;;;;;4592784;19;19918;-33
2023/01/31 02:49:47;;;;;;;;;;;10.10;99.90;;;;;;4594119;19;20342;-34
2023/01/31 02:51:19;;;;;;;;;;;10.10;99.90;;;;;;4592761;19;19936;-32
2023/01/31 02:52:58;;;;;;;;;;;10.20;99.90;;;;;;4593564;19;19919;-35
2023/01/31 02:56:13;;;;;;;;;;;10.10;99.90;;;;;;4593258;19;19925;-31
2023/01/31 02:56:22;;;;;;;;;;;10.10;99.90;;;;;;4592951;19;20338;-32
2023/01/31 02:57:53;;;;;;;;;;;10.00;99.90;;;;;;4592283;19;19918;-35
2023/01/31 02:59:26;;;;;;;;;;;10.00;99.90;;;;;;4592851;19;19923;-33
2023/01/31 03:00:58;;;;;;;;;;;10.00;99.90;;;;;;4591751;19;19925;-35
2023/01/31 03:02:29;;;;;;;;;;;10.00;99.90;;;;;;4593463;19;19978;-36
2023/01/31 03:04:03;;;;;;;;;;;10.00;99.90;;;;;;4592825;19;19926;-37
2023/01/31 03:05:35;;;;;;;;;;;10.00;99.90;;;;;;4593419;19;19922;-34
2023/01/31 03:07:07;;;;;;;;;;;10.00;99.90;;;;;;4594164;19;19915;-36
2023/01/31 03:08:38;;;;;;;;;;;10.00;99.90;;;;;;4594333;19;19923;-35
2023/01/31 03:10:15;;;;;;;;;;;10.00;99.90;;;;;;4593623;19;19927;-33
2023/01/31 03:11:52;;;;;;;;;;;10.00;99.90;;;;;;4592651;19;20009;-35
2023/01/31 03:13:29;;;;;;;;;;;10.00;99.90;;;;;;4591587;19;20328;-34
2023/01/31 03:15:04;;;;;;;;;;;10.10;99.90;;;;;;4592601;19;19915;-34
2023/01/31 03:18:34;;;;;;;;;;;10.00;99.90;;;;;;4593289;19;19974;-32
2023/01/31 03:20:07;;;;;;;;;;;10.00;99.90;;;;;;4592432;19;20238;-35
2023/01/31 03:21:43;;;;;;;;;;;10.00;99.90;;;;;;4592865;19;19923;-34
2023/01/31 03:23:18;;;;;;;;;;;10.00;99.90;;;;;;4593076;19;20393;-32
2023/01/31 03:24:49;;;;;;;;;;;10.00;99.90;;;;;;4592259;19;19974;-32
2023/01/31 03:26:21;;;;;;;;;;;10.10;99.90;;;;;;4593119;19;19911;-31
2023/01/31 03:27:56;;;;;;;;;;;10.10;99.90;;;;;;4593028;19;20260;-34
2023/01/31 03:29:28;;;;;;;;;;;10.10;99.90;;;;;;4592644;19;19915;-35
2023/01/31 03:31:01;;;;;;;;;;;10.10;99.90;;;;;;4592715;19;20327;-33
2023/01/31 03:32:32;;;;;;;;;;;10.00;99.90;;;;;;4591981;19;20268;-34
2023/01/31 03:34:07;;;;;;;;;;;10.00;99.90;;;;;;4592412;19;19918;-33
2023/01/31 03:35:38;;;;;;;;;;;10.00;99.90;;;;;;4592550;19;19925;-36
2023/01/31 03:37:18;;;;;;;;;;;10.00;99.90;;;;;;4591828;19;19914;-31
2023/01/31 03:38:52;;;;;;;;;;;10.10;99.90;;;;;;4592209;19;20338;-34
2023/01/31 03:40:25;;;;;;;;;;;10.00;99.90;;;;;;4591796;19;19938;-36
2023/01/31 03:41:57;;;;;;;;;;;9.80;99.90;;;;;;4592304;19;19926;-31
2023/01/31 03:43:45;;;;;;;;;;;9.90;99.90;;;;;;4592706;19;19915;-32
2023/01/31 03:45:18;;;;;;;;;;;9.80;99.90;;;;;;4591795;19;19947;-31
2023/01/31 03:46:50;;;;;;;;;;;9.90;99.90;;;;;;4592833;19;19921;-36
2023/01/31 03:48:23;;;;;;;;;;;9.90;99.90;;;;;;4592148;19;19986;-37
2023/01/31 03:49:54;;;;;;;;;;;10.00;99.90;;;;;;4591485;19;19925;-32
2023/01/31 03:51:26;;;;;;;;;;;10.00;99.90;;;;;;4591786;19;20290;-34
2023/01/31 03:53:03;;;;;;;;;;;10.00;99.90;;;;;;4591485;19;19926;-34
2023/01/31 03:54:37;;;;;;;;;;;10.00;99.90;;;;;;4592005;19;19914;-33
2023/01/31 03:56:23;;;;;;;;;;;10.00;99.90;;;;;;4592324;19;19941;-33
2023/01/31 03:57:55;;;;;;;;;;;10.00;99.90;;;;;;4591282;19;19992;-35
2023/01/31 03:59:27;;;;;;;;;;;10.00;99.90;;;;;;4591696;19;19915;-34
2023/01/31 04:00:58;;;;;;;;;;;10.00;99.90;;;;;;4592582;19;19915;-33
2023/01/31 04:02:32;;;;;;;;;;;10.00;99.90;;;;;;4592893;19;19922;-36
2023/01/31 04:04:23;;;;;;;;;;;10.00;99.80;;;;;;4592675;19;19925;-36
2023/01/31 04:05:54;;;;;;;;;;;10.10;99.80;;;;;;4592389;19;19947;-32
2023/01/31 04:07:25;;;;;;;;;;;10.00;99.80;;;;;;4592540;19;20003;-33
2023/01/31 04:08:56;;;;;;;;;;;10.00;99.80;;;;;;4593054;19;20245;-33
2023/01/31 04:10:27;;;;;;;;;;;10.00;99.70;;;;;;4592490;19;19941;-34
2023/01/31 04:11:59;;;;;;;;;;;10.00;99.80;;;;;;4592429;19;19929;-34
2023/01/31 04:13:30;;;;;;;;;;;10.00;99.70;;;;;;4592600;19;19974;-31
2023/01/31 04:15:02;;;;;;;;;;;10.00;99.50;;;;;;4591417;19;20348;-35
2023/01/31 04:16:33;;;;;;;;;;;9.90;99.60;;;;;;4591083;19;19919;-34
2023/01/31 04:18:04;;;;;;;;;;;9.90;99.60;;;;;;4591972;19;20412;-31
2023/01/31 04:19:35;;;;;;;;;;;9.90;99.60;;;;;;4592420;19;19907;-31
2023/01/31 04:21:06;;;;;;;;;;;9.80;99.60;;;;;;4591203;19;19915;-33
2023/01/31 04:22:37;;;;;;;;;;;9.80;99.60;;;;;;4591324;19;19915;-34
2023/01/31 04:24:08;;;;;;;;;;;9.80;99.60;;;;;;4591059;19;20320;-34
2023/01/31 04:25:40;;;;;;;;;;;9.80;99.50;;;;;;4591022;19;19940;-35
2023/01/31 04:27:11;;;;;;;;;;;9.80;99.50;;;;;;4592113;19;19915;-36
2023/01/31 04:28:42;;;;;;;;;;;9.80;99.50;;;;;;4592290;19;19914;-33
2023/01/31 04:30:13;;;;;;;;;;;9.80;99.70;;;;;;4592466;19;19946;-36
2023/01/31 04:31:47;;;;;;;;;;;9.90;99.40;;;;;;4591114;19;20329;-34
2023/01/31 04:33:18;;;;;;;;;;;9.90;99.30;;;;;;4592042;19;19937;-35
2023/01/31 04:34:50;;;;;;;;;;;10.00;99.10;;;;;;4590955;19;20308;-34
2023/01/31 04:36:21;;;;;;;;;;;9.90;99.40;;;;;;4591746;19;19915;-33
2023/01/31 04:37:52;;;;;;;;;;;9.80;99.40;;;;;;4591649;19;19918;-35
2023/01/31 04:39:23;;;;;;;;;;;9.90;99.90;;;;;;4591737;19;19915;-36
2023/01/31 04:40:54;;;;;;;;;;;9.90;99.90;;;;;;4590001;19;19935;-35
2023/01/31 04:42:25;;;;;;;;;;;9.80;99.90;;;;;;4591653;19;19997;-32
2023/01/31 04:43:56;;;;;;;;;;;9.80;99.90;;;;;;4591485;19;19942;-32
2023/01/31 04:45:27;;;;;;;;;;;9.90;99.90;;;;;;4591697;19;19926;-36
2023/01/31 04:46:58;;;;;;;;;;;10.00;99.90;;;;;;4590697;19;19915;-34
2023/01/31 04:48:30;;;;;;;;;;;9.90;99.80;;;;;;4591029;19;20268;-31
2023/01/31 04:50:01;;;;;;;;;;;9.90;99.90;;;;;;4591101;19;19947;-32
2023/01/31 04:51:32;;;;;;;;;;;9.90;99.70;;;;;;4590383;19;19915;-33
2023/01/31 04:53:03;;;;;;;;;;;9.90;99.80;;;;;;4591491;19;19923;-35
2023/01/31 04:54:35;;;;;;;;;;;10.00;99.90;;;;;;4591775;19;19982;-34
2023/01/31 04:56:06;;;;;;;;;;;9.80;99.80;;;;;;4590268;19;20409;-34
2023/01/31 04:57:38;;;;;;;;;;;9.90;99.90;;;;;;4591471;19;19937;-33
2023/01/31 04:59:09;;;;;;;;;;;9.90;99.90;;;;;;4590795;19;19986;-32
2023/01/31 05:00:40;;;;;;;;;;;9.90;99.80;;;;;;4589903;19;19921;-31
2023/01/31 05:02:13;;;;;;;;;;;9.90;99.60;;;;;;4591127;19;19919;-34
2023/01/31 05:03:44;;;;;;;;;;;9.90;99.70;;;;;;4591489;19;19923;-34
2023/01/31 05:05:15;;;;;;;;;;;9.90;99.70;;;;;;4590612;19;20321;-33
2023/01/31 05:06:47;;;;;;;;;;;10.00;99.60;;;;;;4590728;19;19982;-32
2023/01/31 05:08:18;;;;;;;;;;;10.00;99.50;;;;;;4590162;19;19978;-33
2023/01/31 05:09:49;;;;;;;;;;;10.00;99.60;;;;;;4591187;19;19907;-31
2023/01/31 05:11:21;;;;;;;;;;;10.10;99.50;;;;;;4591838;19;19915;-34
2023/01/31 05:12:52;;;;;;;;;;;10.10;99.40;;;;;;4591348;19;19923;-35
2023/01/31 05:14:23;;;;;;;;;;;10.20;99.40;;;;;;4591012;19;19918;-35
2023/01/31 05:15:56;;;;;;;;;;;10.20;99.30;;;;;;4591772;19;19907;-33
2023/01/31 05:17:28;;;;;;;;;;;10.20;99.10;;;;;;4590942;19;19926;-32
2023/01/31 05:18:59;;;;;;;;;;;10.10;99.20;;;;;;4590215;19;19915;-33
2023/01/31 05:20:32;;;;;;;;;;;10.10;99.10;;;;;;4590698;19;19974;-33
2023/01/31 05:22:03;;;;;;;;;;;10.10;99.20;;;;;;4588834;19;19919;-34
2023/01/31 05:23:34;;;;;;;;;;;10.20;99.20;;;;;;4590269;19;19922;-33
2023/01/31 05:25:06;;;;;;;;;;;10.20;99.00;;;;;;4590964;19;19925;-34
2023/01/31 05:26:37;;;;;;;;;;;10.10;99.30;;;;;;4591679;19;19978;-31
2023/01/31 05:28:08;;;;;;;;;;;10.10;99.20;;;;;;4591616;19;19921;-32
2023/01/31 05:29:39;;;;;;;;;;;10.00;99.10;;;;;;4590782;19;20376;-35
2023/01/31 05:31:11;;;;;;;;;;;9.90;99.20;;;;;;4589753;19;19926;-34
2023/01/31 05:32:44;;;;;;;;;;;9.80;99.30;;;;;;4590841;19;19923;-35
2023/01/31 05:34:16;;;;;;;;;;;9.80;99.40;;;;;;4591721;19;19944;-35
2023/01/31 05:35:47;;;;;;;;;;;9.80;99.40;;;;;;4588597;19;19911;-35
2023/01/31 05:37:18;;;;;;;;;;;9.80;99.10;;;;;;4594962;19;19937;-34
2023/01/31 05:38:50;;;;;;;;;;;9.80;99.00;;;;;;4595735;19;19911;-32
2023/01/31 05:40:21;;;;;;;;;;;9.90;99.10;;;;;;4595405;19;19914;-34
2023/01/31 05:41:52;;;;;;;;;;;9.90;98.90;;;;;;4595431;19;20334;-35
2023/01/31 05:43:23;;;;;;;;;;;9.90;99.00;;;;;;4595947;19;19915;-32
2023/01/31 05:44:54;;;;;;;;;;;9.80;99.00;;;;;;4594773;19;19918;-35
2023/01/31 05:46:25;;;;;;;;;;;9.90;98.80;;;;;;4594947;19;19911;-31
2023/01/31 05:47:56;;;;;;;;;;;9.90;98.80;;;;;;4595626;19;19992;-34
2023/01/31 05:49:32;;;;;;;;;;;9.90;98.80;;;;;;4594105;19;19914;-32
2023/01/31 05:51:03;;;;;;;;;;;9.80;98.80;;;;;;4594431;19;19918;-36
2023/01/31 05:52:34;;;;;;;;;;;9.80;98.70;;;;;;4594747;19;19915;-33
2023/01/31 05:54:05;;;;;;;;;;;9.80;98.60;;;;;;4595274;19;19925;-33
2023/01/31 05:55:36;;;;;;;;;;;9.80;98.70;;;;;;4595666;19;20284;-34
2023/01/31 05:57:08;;;;;;;;;;;9.80;98.90;;;;;;4595325;19;20334;-34
2023/01/31 05:58:54;;;;;;;;;;;9.70;98.90;;;;;;4593695;19;19926;-33
2023/01/31 06:00:25;;;;;;;;;;;9.80;99.00;;;;;;4595085;19;19938;-33
2023/01/31 06:01:56;;;;;;;;;;;9.80;98.90;;;;;;4594324;19;19919;-33
2023/01/31 06:03:27;;;;;;;;;;;9.90;98.70;;;;;;4595071;19;19925;-34
2023/01/31 06:04:58;;;;;;;;;;;9.80;98.70;;;;;;4594916;19;19918;-33
2023/01/31 06:06:29;;;;;;;;;;;9.90;98.80;;;;;;4595319;19;19936;-33
2023/01/31 06:08:01;;;;;;;;;;;9.90;98.50;;;;;;4595320;19;19911;-32
2023/01/31 06:09:31;;;;;;;;;;;10.00;98.50;;;;;;4594734;19;20357;-34
2023/01/31 06:11:03;;;;;;;;;;;9.90;98.40;;;;;;4594868;19;19941;-34
2023/01/31 06:12:34;;;;;;;;;;;9.90;98.40;;;;;;4595487;19;19951;-34
2023/01/31 06:14:06;;;;;;;;;;;9.90;98.40;;;;;;4595425;19;20238;-34
2023/01/31 06:15:41;;;;;;;;;;;10.00;98.20;;;;;;4593680;19;20321;-32
2023/01/31 06:17:12;;;;;;;;;;;9.90;98.30;;;;;;4594678;19;20325;-35
2023/01/31 06:18:43;;;;;;;;;;;10.00;98.20;;;;;;4595196;19;19970;-31
2023/01/31 06:20:15;;;;;;;;;;;10.10;98.10;;;;;;4595133;19;19922;-31
2023/01/31 06:21:46;;;;;;;;;;;10.10;98.20;;;;;;4594516;19;19926;-32
2023/01/31 06:23:18;;;;;;;;;;;10.10;98.20;;;;;;4595182;19;19986;-32
2023/01/31 06:24:49;;;;;;;;;;;10.20;98.30;;;;;;4594838;19;19915;-32
2023/01/31 06:26:20;;;;;;;;;;;10.20;98.30;;;;;;4595278;19;20321;-31
2023/01/31 06:27:51;;;;;;;;;;;10.20;97.90;;;;;;4593322;19;19923;-31
2023/01/31 06:29:22;;;;;;;;;;;10.20;97.90;;;;;;4594190;19;20006;-31
2023/01/31 06:30:54;;;;;;;;;;;10.20;98.10;;;;;;4594872;19;19911;-31
2023/01/31 06:32:25;;;;;;;;;;;10.30;98.00;;;;;;4594396;19;19915;-31
2023/01/31 06:33:57;;;;;;;;;;;10.30;98.00;;;;;;4594639;19;19918;-30
2023/01/31 06:35:28;;;;;;;;;;;10.30;98.00;;;;;;4593426;19;19915;-31
2023/01/31 06:36:59;;;;;;;;;;;10.30;97.80;;;;;;4594311;19;19966;-30
2023/01/31 06:38:31;;;;;;;;;;;10.30;97.80;;;;;;4594379;19;19922;-32
2023/01/31 06:40:02;;;;;;;;;;;10.40;98.00;;;;;;4594508;19;19914;-32
2023/01/31 06:41:33;;;;;;;;;;;10.40;97.70;;;;;;4593661;19;19919;-32
2023/01/31 06:43:04;;;;;;;;;;;10.40;97.70;;;;;;4595225;19;19907;-32
2023/01/31 06:44:36;;;;;;;;;;;10.40;97.80;;;;;;4594140;19;19914;-32
2023/01/31 06:46:07;;;;;;;;;;;10.40;97.60;;;;;;4594491;19;19915;-32
2023/01/31 06:47:38;;;;;;;;;;;10.40;97.70;;;;;;4592860;19;19941;-32
2023/01/31 06:49:09;;;;;;;;;;;10.40;97.60;;;;;;4593809;19;19923;-32
2023/01/31 06:50:41;;;;;;;;;;;10.70;97.50;;;;;;4594246;19;20268;-32
2023/01/31 06:52:12;;;;;;;;;;;10.70;97.50;;;;;;4592949;19;19923;-32
2023/01/31 06:53:43;;;;;;;;;;;10.90;97.40;;;;;;4593846;19;19915;-32
2023/01/31 06:55:14;;;;;;;;;;;11.00;97.20;;;;;;4593776;19;19910;-32
2023/01/31 06:56:46;;;;;;;;;;;10.80;97.20;;;;;;4591296;19;19915;-32
2023/01/31 06:58:17;;;;;;;;;;;10.60;97.10;;;;;;4589818;19;19971;-32
2023/01/31 06:59:48;;;;;;;;;;;10.60;97.40;;;;;;4594083;19;19935;-32
2023/01/31 07:01:21;;;;;;;;;;;10.50;97.30;;;;;;4592590;19;20385;-32
2023/01/31 07:02:52;;;;;;;;;;;10.40;97.30;;;;;;4593735;19;19911;-32
2023/01/31 07:04:23;;;;;;;;;;;10.40;97.50;;;;;;4593130;19;19974;-32
2023/01/31 07:05:55;;;;;;;;;;;10.40;97.50;;;;;;4593496;19;19918;-32
2023/01/31 07:07:26;;;;;;;;;;;10.40;97.40;;;;;;4593703;19;19922;-32
2023/01/31 07:08:57;;;;;;;;;;;10.40;97.50;;;;;;4594211;19;19941;-32
2023/01/31 07:10:28;;;;;;;;;;;10.40;97.40;;;;;;4594416;19;19922;-32
2023/01/31 07:12:00;;;;;;;;;;;10.30;97.40;;;;;;4592413;19;19929;-32
2023/01/31 07:13:31;;;;;;;;;;;10.40;97.60;;;;;;4593453;19;19918;-32
2023/01/31 07:15:03;;;;;;;;;;;10.40;97.60;;;;;;4590254;19;19952;-32
2023/01/31 07:16:37;;;;;;;;;;;10.40;97.70;;;;;;4593687;19;19927;-32
2023/01/31 07:18:08;;;;;;;;;;;10.50;97.70;;;;;;4593395;19;20248;-32
2023/01/31 07:19:39;;;;;;;;;;;10.40;97.40;;;;;;4593407;19;19914;-32
2023/01/31 07:21:10;;;;;;;;;;;10.50;97.60;;;;;;4591899;19;20281;-32
2023/01/31 07:22:41;;;;;;;;;;;10.50;97.50;;;;;;4593872;19;19925;-32
2023/01/31 07:24:12;;;;;;;;;;;10.50;97.60;;;;;;4592259;19;19918;-32
2023/01/31 07:25:43;;;;;;;;;;;10.50;97.40;;;;;;4593284;19;19938;-32
2023/01/31 07:27:14;;;;;;;;;;;10.50;97.50;;;;;;4593336;19;20245;-32
2023/01/31 07:28:46;;;;;;;;;;;10.50;97.50;;;;;;4593290;19;19918;-32
2023/01/31 07:30:17;;;;;;;;;;;10.50;97.50;;;;;;4593587;19;20344;-32
2023/01/31 07:31:48;;;;;;;;;;;10.50;97.60;;;;;;4593772;19;19911;-32
2023/01/31 07:33:19;;;;;;;;;;;10.50;97.80;;;;;;4593322;19;19923;-32
2023/01/31 07:34:50;;;;;;;;;;;10.50;97.80;;;;;;4592077;19;19914;-32
2023/01/31 07:36:25;;;;;;;;;;;10.40;97.90;;;;;;4592756;19;19915;-32
2023/01/31 07:37:56;;;;;;;;;;;10.30;97.90;;;;;;4593025;19;19918;-32
2023/01/31 07:39:28;;;;;;;;;;;10.30;98.00;;;;;;4593858;19;19984;-32
2023/01/31 07:40:59;;;;;;;;;;;10.20;98.10;;;;;;4592377;19;19918;-32
2023/01/31 07:42:31;;;;;;;;;;;10.20;98.20;;;;;;4593384;19;19915;-32
2023/01/31 07:44:02;;;;;;;;;;;10.20;98.20;;;;;;4592560;19;19982;-32
2023/01/31 07:45:33;;;;;;;;;;;10.20;98.30;;;;;;4593351;19;19921;-32
2023/01/31 07:47:04;;;;;;;;;;;10.20;98.30;;;;;;4592832;19;20245;-32
2023/01/31 07:48:35;;;;;;;;;;;10.10;98.40;;;;;;4593006;19;19914;-32
2023/01/31 07:50:06;;;;;;;;;;;10.10;98.40;;;;;;4592619;19;19918;-32
2023/01/31 07:51:38;;;;;;;;;;;10.10;98.30;;;;;;4592413;19;20335;-32
2023/01/31 07:53:08;;;;;;;;;;;10.20;98.40;;;;;;4593006;19;19915;-32
2023/01/31 07:54:39;;;;;;;;;;;10.20;98.50;;;;;;4593315;19;19915;-32
2023/01/31 07:56:14;;;;;;;;;;;10.20;98.40;;;;;;4593461;19;19922;-32
2023/01/31 07:57:45;;;;;;;;;;;10.20;98.40;;;;;;4592321;19;20333;-32
2023/01/31 07:59:17;;;;;;;;;;;10.30;98.50;;;;;;4592615;19;19982;-32
2023/01/31 08:04:28;;;;;;;;;;;10.30;98.40;;;;;;4593502;19;19915;-32
2023/01/31 08:06:17;;;;;;;;;;;10.30;98.40;;;;;;4592576;19;19919;-32
2023/01/31 08:08:09;;;;;;;;;;;10.30;98.30;;;;;;4592854;19;19947;-32
2023/01/31 08:09:42;;;;;;;;;;;10.40;98.20;;;;;;4592717;19;19984;-32
2023/01/31 08:11:13;;;;;;;;;;;10.20;98.20;;;;;;4592719;19;19978;-32
2023/01/31 08:12:44;;;;;;;;;;;10.20;98.50;;;;;;4592516;19;19918;-32
2023/01/31 08:14:15;;;;;;;;;;;10.30;98.40;;;;;;4592230;19;19918;-32
2023/01/31 08:15:47;;;;;;;;;;;10.40;98.30;;;;;;4592717;19;19915;-32
2023/01/31 08:17:18;;;;;;;;;;;10.50;98.50;;;;;;4592885;19;19998;-32
2023/01/31 08:18:49;;;;;;;;;;;10.40;98.30;;;;;;4592959;19;19934;-32
2023/01/31 08:20:20;;;;;;;;;;;10.40;98.50;;;;;;4592304;19;19911;-32
2023/01/31 08:21:51;;;;;;;;;;;10.50;98.50;;;;;;4592359;19;19925;-32
2023/01/31 08:23:22;;;;;;;;;;;10.40;98.20;;;;;;4592912;19;19918;-32
2023/01/31 08:24:53;;;;;;;;;;;10.40;98.20;;;;;;4592096;19;20332;-32
2023/01/31 08:26:24;;;;;;;;;;;10.40;98.30;;;;;;4592428;19;19919;-32
2023/01/31 08:27:56;;;;;;;;;;;10.40;98.50;;;;;;4592569;19;19925;-32
2023/01/31 08:29:27;;;;;;;;;;;10.30;98.40;;;;;;4592809;19;20248;-32
2023/01/31 08:30:58;;;;;;;;;;;10.30;98.20;;;;;;4590902;19;19978;-32
2023/01/31 08:32:29;;;;;;;;;;;10.40;98.20;;;;;;4591596;19;19911;-32
2023/01/31 08:34:02;;;;;;;;;;;10.40;98.10;;;;;;4592176;19;20389;-32
2023/01/31 08:35:33;;;;;;;;;;;10.40;98.10;;;;;;4592696;19;19922;-32
2023/01/31 08:37:06;;;;;;;;;;;10.40;98.10;;;;;;4591929;19;20365;-32
2023/01/31 08:38:37;;;;;;;;;;;10.20;98.10;;;;;;4592039;19;20346;-32
2023/01/31 08:40:11;;;;;;;;;;;10.20;98.30;;;;;;4591189;19;20253;-32
2023/01/31 08:41:42;;;;;;;;;;;10.30;98.40;;;;;;4590598;19;19923;-32
2023/01/31 08:43:13;;;;;;;;;;;10.30;97.90;;;;;;4591975;19;19915;-32
2023/01/31 08:44:44;;;;;;;;;;;10.10;98.00;;;;;;4591864;19;19926;-32
2023/01/31 08:46:15;;;;;;;;;;;10.10;98.10;;;;;;4590863;19;19919;-32
2023/01/31 08:47:46;;;;;;;;;;;10.10;98.00;;;;;;4591315;19;19933;-32
2023/01/31 08:49:17;;;;;;;;;;;10.20;98.10;;;;;;4591681;19;20256;-32
2023/01/31 08:50:48;;;;;;;;;;;10.30;98.20;;;;;;4590847;19;19918;-32
2023/01/31 08:52:20;;;;;;;;;;;10.20;98.20;;;;;;4591775;19;19930;-32
2023/01/31 08:53:51;;;;;;;;;;;10.20;98.00;;;;;;4591642;19;19915;-32
2023/01/31 08:55:22;;;;;;;;;;;10.30;98.00;;;;;;4592017;19;19915;-32
2023/01/31 08:56:53;;;;;;;;;;;10.30;98.00;;;;;;4592356;19;19941;-32
2023/01/31 08:58:24;;;;;;;;;;;10.40;98.10;;;;;;4590886;19;19944;-32
2023/01/31 08:59:55;;;;;;;;;;;10.30;97.80;;;;;;4591652;19;19933;-32
2023/01/31 09:01:26;;;;;;;;;;;10.20;97.70;;;;;;4591008;19;19941;-32
2023/01/31 09:02:58;;;;;;;;;;;10.20;97.80;;;;;;4591934;19;19915;-32
2023/01/31 09:04:29;;;;;;;;;;;10.20;97.80;;;;;;4591359;19;20019;-32
2023/01/31 09:06:01;;;;;;;;;;;10.30;98.10;;;;;;4591203;19;19918;-32
2023/01/31 09:07:32;;;;;;;;;;;10.30;97.80;;;;;;4591783;19;19923;-32